Time;durP1;ratioP1;P1;durP2;ratioP2;P2;SDS_P1;SDS_P2;PMS_P1;PMS_P2;Temp;Humidity;BMP_temperature;BMP_pressure;BME280_temperature;BME280_humidity;BME280_pressure;Samples;Min_cycle;Max_cycle;Signal;HPM_P1;HPM_P2
2024/01/04 00:09:18;;;;;;;6.93;1.77;;;8.60;99.90;;;;;;20846406;28;20524;-40
2024/01/04 00:19:18;;;;;;;3.70;1.13;;;8.40;99.90;;;;;;20867854;28;20056;-40
2024/01/04 00:29:19;;;;;;;5.03;1.52;;;8.40;99.90;;;;;;20872920;28;20029;-40
2024/01/04 00:39:24;;;;;;;10.60;2.20;;;8.40;99.90;;;;;;20865026;28;20049;-41
2024/01/04 00:49:24;;;;;;;12.15;2.80;;;8.50;99.90;;;;;;20872126;28;20301;-41
2024/01/04 00:59:25;;;;;;;7.95;2.33;;;8.40;99.90;;;;;;20862375;28;20701;-40
2024/01/04 01:09:26;;;;;;;7.78;2.50;;;8.40;99.90;;;;;;20857806;28;20045;-41
2024/01/04 01:19:27;;;;;;;11.77;3.22;;;8.40;99.90;;;;;;20857338;28;20047;-41
2024/01/04 01:29:27;;;;;;;14.38;3.83;;;8.40;99.90;;;;;;20846772;28;20052;-40
2024/01/04 01:39:28;;;;;;;9.77;3.22;;;8.40;99.90;;;;;;20851295;28;20083;-40
2024/01/04 01:49:28;;;;;;;13.10;3.35;;;8.50;99.90;;;;;;20856098;28;20572;-40
2024/01/04 01:59:29;;;;;;;11.43;3.35;;;8.40;99.90;;;;;;20854812;28;20080;-40
2024/01/04 02:09:29;;;;;;;10.45;3.42;;;8.40;99.90;;;;;;20850824;28;20094;-41
2024/01/04 02:19:31;;;;;;;10.85;4.18;;;8.40;99.90;;;;;;20843521;28;20559;-40
2024/01/04 02:29:31;;;;;;;14.18;3.88;;;8.40;99.90;;;;;;20852350;28;20060;-40
2024/01/04 02:39:32;;;;;;;10.80;3.60;;;8.30;99.90;;;;;;20850546;28;20057;-41
2024/01/04 02:49:32;;;;;;;11.55;3.75;;;8.30;99.90;;;;;;20853174;28;20520;-40
2024/01/04 02:59:33;;;;;;;12.88;3.13;;;8.30;99.90;;;;;;20858318;28;20377;-41
2024/01/04 03:09:34;;;;;;;6.78;2.25;;;8.30;99.90;;;;;;20845303;28;20147;-41
2024/01/04 03:19:34;;;;;;;7.60;2.65;;;8.20;99.90;;;;;;20847871;28;20041;-41
2024/01/04 03:29:35;;;;;;;10.75;2.90;;;8.20;99.90;;;;;;20849190;28;20037;-40
2024/01/04 03:39:35;;;;;;;11.63;2.92;;;8.20;99.90;;;;;;20845571;28;20057;-40
2024/01/04 03:49:36;;;;;;;12.35;2.65;;;8.20;99.90;;;;;;20863860;28;20119;-40
2024/01/04 03:59:37;;;;;;;9.70;2.38;;;8.10;99.90;;;;;;20864229;28;20052;-40
2024/01/04 04:09:37;;;;;;;6.88;2.30;;;8.10;99.90;;;;;;20862277;28;20142;-40
2024/01/04 04:19:38;;;;;;;5.65;2.20;;;8.10;99.90;;;;;;20865490;28;20041;-41
2024/01/04 04:29:40;;;;;;;5.63;1.73;;;8.10;99.90;;;;;;20866907;28;20485;-42
2024/01/04 04:39:41;;;;;;;4.57;1.77;;;8.00;99.90;;;;;;20863213;28;20161;-41
2024/01/04 04:49:41;;;;;;;6.75;1.40;;;8.00;99.90;;;;;;20858854;28;20051;-41
2024/01/04 04:59:42;;;;;;;4.28;1.70;;;7.90;99.90;;;;;;20864898;28;20526;-41
2024/01/04 05:09:42;;;;;;;6.63;1.70;;;7.90;99.90;;;;;;20859660;28;20056;-41
2024/01/04 05:19:44;;;;;;;4.70;1.60;;;7.90;99.90;;;;;;20864877;28;20699;-41
2024/01/04 05:29:45;;;;;;;6.22;1.60;;;7.90;99.90;;;;;;20864644;28;20042;-40
2024/01/04 05:39:46;;;;;;;4.80;1.73;;;7.90;99.90;;;;;;20860629;28;20167;-41
2024/01/04 05:49:47;;;;;;;5.55;1.67;;;7.90;99.90;;;;;;20862403;28;20041;-40
2024/01/04 05:59:47;;;;;;;4.07;1.88;;;7.90;99.90;;;;;;20852368;28;20116;-40
2024/01/04 06:09:48;;;;;;;5.38;2.05;;;7.80;99.90;;;;;;20846288;28;20492;-41
2024/01/04 06:19:49;;;;;;;3.70;1.83;;;7.80;99.90;;;;;;20853832;28;20567;-40
2024/01/04 06:29:49;;;;;;;5.88;2.53;;;7.80;99.90;;;;;;20851748;28;20041;-40
2024/01/04 06:39:50;;;;;;;6.05;2.03;;;7.80;99.90;;;;;;20841323;28;20049;-40
2024/01/04 06:49:51;;;;;;;6.70;2.27;;;7.90;99.90;;;;;;20851550;28;20071;-40
2024/01/04 06:59:52;;;;;;;4.68;2.50;;;7.90;99.90;;;;;;20839528;28;20436;-40
2024/01/04 07:09:53;;;;;;;10.60;2.55;;;7.90;99.90;;;;;;20839390;28;20064;-40
2024/01/04 07:19:53;;;;;;;6.45;2.35;;;7.90;99.90;;;;;;20839919;28;20041;-40
2024/01/04 07:29:54;;;;;;;5.30;2.15;;;7.80;99.90;;;;;;20853124;28;20539;-40
2024/01/04 07:39:55;;;;;;;5.22;2.00;;;7.80;99.90;;;;;;20840841;28;20049;-40
2024/01/04 07:49:55;;;;;;;6.15;2.42;;;7.80;99.90;;;;;;20848404;28;20490;-40
2024/01/04 07:59:56;;;;;;;5.75;2.60;;;7.80;99.90;;;;;;20842042;28;20077;-40
2024/01/04 08:09:57;;;;;;;5.80;2.13;;;7.80;99.90;;;;;;20841759;28;20098;-40
2024/01/04 08:19:58;;;;;;;5.68;2.08;;;7.80;1.00;;;;;;20842625;28;20052;-40
2024/01/04 08:29:58;;;;;;;7.23;2.13;;;7.80;1.00;;;;;;20849026;28;20045;-40
2024/01/04 08:39:59;;;;;;;9.18;2.55;;;7.90;1.00;;;;;;20857000;28;20478;-40
2024/01/04 08:50:00;;;;;;;8.70;3.40;;;7.80;1.00;;;;;;20859786;28;20039;-40
2024/01/04 09:00:01;;;;;;;5.47;2.65;;;8.00;1.00;;;;;;20860820;28;20084;-40
2024/01/04 09:10:02;;;;;;;6.30;2.65;;;7.90;1.00;;;;;;20858175;28;20051;-40
2024/01/04 09:20:03;;;;;;;7.18;2.90;;;7.90;1.00;;;;;;20858867;28;20055;-40
2024/01/04 09:30:04;;;;;;;8.20;3.17;;;7.90;1.00;;;;;;20854815;28;20075;-40
2024/01/04 09:40:05;;;;;;;8.50;3.83;;;8.00;1.00;;;;;;20854309;28;20500;-40
2024/01/04 09:50:10;;;;;;;10.25;4.43;;;8.10;1.00;;;;;;20855758;28;20532;-40
2024/01/04 10:00:11;;;;;;;10.45;4.03;;;8.30;1.00;;;;;;20767923;28;20053;-40
2024/01/04 10:10:19;;;;;;;10.80;3.80;;;8.40;1.00;;;;;;20762907;28;20485;-40
2024/01/04 10:20:20;;;;;;;13.00;4.18;;;8.50;1.00;;;;;;20786907;28;20074;-40
2024/01/04 10:30:20;;;;;;;9.18;3.92;;;8.70;1.00;;;;;;20843816;28;20033;-40
2024/01/04 10:40:21;;;;;;;12.80;3.40;;;8.70;1.00;;;;;;20845821;28;20045;-40
2024/01/04 10:50:25;;;;;;;10.50;2.90;;;8.70;99.90;;;;;;20828641;28;20033;-40
2024/01/04 11:00:28;;;;;;;4.50;1.13;;;8.80;99.90;;;;;;20851468;28;20053;-40
2024/01/04 11:10:29;;;;;;;3.67;1.17;;;8.90;99.90;;;;;;20843732;28;20041;-40
2024/01/04 11:20:48;;;;;;;5.22;1.35;;;8.90;99.90;;;;;;20848270;28;20493;-40
2024/01/04 11:30:53;;;;;;;5.75;1.48;;;9.20;99.90;;;;;;20862340;28;20056;-40
2024/01/04 11:40:54;;;;;;;4.50;1.30;;;10.10;99.90;;;;;;20853488;28;20180;-40
2024/01/04 11:50:58;;;;;;;3.03;0.90;;;10.00;99.90;;;;;;20850652;28;20047;-40
2024/01/04 12:01:02;;;;;;;2.90;0.90;;;9.80;99.90;;;;;;20846605;28;20051;-40
2024/01/04 12:11:07;;;;;;;5.28;0.75;;;9.50;99.90;;;;;;20819375;28;20146;-40
2024/01/04 12:21:08;;;;;;;3.63;1.17;;;9.40;99.90;;;;;;20856596;28;20476;-40
2024/01/04 12:31:09;;;;;;;4.80;1.00;;;9.50;99.90;;;;;;20859771;28;20253;-40
2024/01/04 12:41:10;;;;;;;3.30;0.80;;;9.60;99.90;;;;;;20855197;28;20084;-40
2024/01/04 12:51:14;;;;;;;2.80;0.60;;;9.50;99.90;;;;;;20858733;28;20041;-40
2024/01/04 13:01:16;;;;;;;5.07;1.10;;;9.40;99.90;;;;;;20856932;28;20048;-40
2024/01/04 13:11:20;;;;;;;7.93;1.35;;;9.40;99.90;;;;;;20853749;28;20128;-40
2024/01/04 13:21:20;;;;;;;5.13;2.28;;;9.40;99.90;;;;;;20851183;28;20191;-40
2024/01/04 13:31:21;;;;;;;2.55;0.77;;;9.40;99.90;;;;;;20843081;28;20044;-40
2024/01/04 13:41:21;;;;;;;2.72;0.35;;;9.40;99.90;;;;;;20853880;28;20576;-40
2024/01/04 13:51:22;;;;;;;1.52;0.30;;;9.00;99.90;;;;;;20856397;28;20047;-41
2024/01/04 14:01:23;;;;;;;3.08;0.70;;;8.70;99.90;;;;;;20851881;28;20044;-41
2024/01/04 14:11:23;;;;;;;2.05;0.70;;;8.60;99.90;;;;;;20856541;28;20076;-41
2024/01/04 14:21:24;;;;;;;2.38;0.90;;;8.60;99.90;;;;;;20852792;28;20147;-40
2024/01/04 14:31:27;;;;;;;2.55;1.10;;;8.50;99.90;;;;;;20850913;28;20206;-40
2024/01/04 14:41:27;;;;;;;7.45;1.67;;;8.50;99.90;;;;;;20848433;28;20398;-41
2024/01/04 14:51:29;;;;;;;6.43;1.60;;;8.50;99.90;;;;;;20852606;28;20044;-40
2024/01/04 15:01:29;;;;;;;5.25;1.50;;;8.50;99.90;;;;;;20847132;28;20048;-40
2024/01/04 15:11:31;;;;;;;8.40;2.53;;;8.50;99.90;;;;;;20821796;28;20045;-40
2024/01/04 15:21:32;;;;;;;6.97;2.75;;;8.50;99.90;;;;;;20844441;28;20505;-40
2024/01/04 15:31:32;;;;;;;7.03;2.30;;;8.50;99.90;;;;;;20849983;28;20044;-40
2024/01/04 15:41:33;;;;;;;11.35;3.08;;;8.60;99.90;;;;;;20857160;28;20485;-40
2024/01/04 15:51:34;;;;;;;11.75;3.58;;;8.50;99.90;;;;;;20865684;28;20060;-40
2024/01/04 16:01:36;;;;;;;13.18;4.30;;;8.40;99.90;;;;;;20859163;28;20072;-40
2024/01/04 16:11:37;;;;;;;15.27;2.90;;;8.20;99.90;;;;;;20871470;28;20036;-40
2024/01/04 16:21:37;;;;;;;11.73;2.90;;;8.10;99.90;;;;;;20879458;28;20471;-40
2024/01/04 16:31:39;;;;;;;17.77;3.55;;;8.10;99.90;;;;;;20879737;28;21802;-40
2024/01/04 16:41:43;;;;;;;13.68;3.10;;;8.00;99.90;;;;;;20881521;28;20539;-40
2024/01/04 16:51:44;;;;;;;12.55;3.40;;;7.90;99.90;;;;;;20861833;28;20134;-40
2024/01/04 17:01:47;;;;;;;11.73;3.65;;;7.70;99.90;;;;;;20864617;28;20057;-40
2024/01/04 17:11:48;;;;;;;17.95;3.08;;;7.60;99.90;;;;;;20864126;28;20041;-40
2024/01/04 17:21:49;;;;;;;14.98;3.55;;;7.60;99.90;;;;;;20860987;28;20067;-40
2024/01/04 17:31:49;;;;;;;22.70;3.70;;;7.60;99.90;;;;;;20873627;28;20036;-40
2024/01/04 17:41:50;;;;;;;21.17;6.10;;;7.70;99.90;;;;;;20866393;28;20099;-40
2024/01/04 17:51:50;;;;;;;20.27;4.95;;;7.60;99.90;;;;;;20865053;28;20542;-40
2024/01/04 18:01:51;;;;;;;17.35;3.90;;;7.60;99.90;;;;;;20861838;28;20089;-40
2024/01/04 18:11:51;;;;;;;17.45;4.10;;;7.60;99.90;;;;;;20859405;28;20041;-40
2024/01/04 18:21:52;;;;;;;21.33;4.78;;;7.40;99.90;;;;;;20861323;28;20041;-40
2024/01/04 18:31:53;;;;;;;23.45;7.00;;;7.40;99.90;;;;;;20862560;28;20056;-40
2024/01/04 18:41:53;;;;;;;22.05;6.00;;;7.50;99.90;;;;;;20861882;28;20049;-40
2024/01/04 18:51:55;;;;;;;19.30;5.60;;;7.60;99.90;;;;;;20859344;28;20436;-40
2024/01/04 19:01:56;;;;;;;21.60;6.88;;;7.50;99.90;;;;;;20858765;28;20367;-40
2024/01/04 19:11:56;;;;;;;24.23;6.43;;;7.60;99.90;;;;;;20848096;28;20491;-40
2024/01/04 19:21:57;;;;;;;27.67;9.13;;;7.60;99.90;;;;;;20850552;28;20040;-40
2024/01/04 19:31:58;;;;;;;32.50;12.63;;;7.60;99.90;;;;;;20864728;28;20083;-40
2024/01/04 19:41:59;;;;;;;43.50;18.02;;;7.70;99.90;;;;;;20848078;28;20508;-40
2024/01/04 19:51:59;;;;;;;32.13;12.25;;;7.70;99.90;;;;;;20858176;28;20049;-40
2024/01/04 20:02:00;;;;;;;31.58;9.35;;;7.60;99.90;;;;;;20842236;28;20137;-40
2024/01/04 20:12:01;;;;;;;26.45;7.95;;;7.70;99.90;;;;;;20846104;28;20049;-40
2024/01/04 20:22:02;;;;;;;24.63;8.63;;;7.70;99.90;;;;;;20842451;28;20406;-40
2024/01/04 20:32:03;;;;;;;25.27;9.60;;;7.60;99.90;;;;;;20860344;28;20460;-40
2024/01/04 20:42:03;;;;;;;29.15;9.88;;;7.70;99.90;;;;;;20853245;28;20049;-40
2024/01/04 20:52:04;;;;;;;23.88;8.93;;;7.70;99.90;;;;;;20860583;28;20045;-40
2024/01/04 21:02:05;;;;;;;22.33;8.10;;;7.80;99.90;;;;;;20863339;28;20041;-40
2024/01/04 21:12:07;;;;;;;19.02;7.70;;;7.70;99.90;;;;;;20857126;28;20149;-40
2024/01/04 21:22:07;;;;;;;20.35;8.10;;;7.70;99.90;;;;;;20855692;28;20103;-40
2024/01/04 21:32:08;;;;;;;23.02;8.30;;;7.60;99.90;;;;;;20854851;28;20473;-40
2024/01/04 21:42:12;;;;;;;21.70;8.40;;;7.60;99.90;;;;;;20850448;28;20140;-41
2024/01/04 21:52:20;;;;;;;23.80;8.50;;;7.60;99.90;;;;;;20852989;28;20056;-41
2024/01/04 22:02:21;;;;;;;;;;;7.60;99.90;;;;;;20856885;28;20079;-41
2024/01/04 22:12:22;;;;;;;23.50;8.57;;;7.50;99.90;;;;;;20834729;28;20039;-42
2024/01/04 22:22:22;;;;;;;16.65;7.57;;;7.60;99.90;;;;;;20857879;28;20543;-40
2024/01/04 22:32:23;;;;;;;18.30;7.35;;;7.60;99.90;;;;;;20859878;28;20044;-41
2024/01/04 22:42:25;;;;;;;16.27;6.95;;;7.70;99.90;;;;;;20858701;28;20044;-41
2024/01/04 22:52:25;;;;;;;22.10;8.65;;;7.60;99.90;;;;;;20864775;28;20044;-41
2024/01/04 23:02:26;;;;;;;24.77;7.43;;;7.60;99.90;;;;;;20870881;28;20045;-40
2024/01/04 23:12:26;;;;;;;17.85;6.53;;;7.70;99.90;;;;;;20870719;28;20489;-40
2024/01/04 23:22:27;;;;;;;18.95;7.25;;;7.70;99.90;;;;;;20865497;28;20452;-40
2024/01/04 23:32:31;;;;;;;19.42;7.25;;;7.70;99.90;;;;;;20868133;28;20037;-40
2024/01/04 23:42:31;;;;;;;19.75;7.15;;;7.80;99.90;;;;;;20871082;28;20088;-43
2024/01/04 23:52:32;;;;;;;19.23;7.00;;;7.80;99.90;;;;;;20865675;28;20286;-43
